createdAt,value
2017-07-20T00:00:50.796Z,5.37
2017-07-20T00:03:19.219Z,5.63
2017-07-20T00:05:47.651Z,5.20
2017-07-20T00:08:16.050Z,5.73
2017-07-20T00:10:44.448Z,5.20
2017-07-20T00:13:12.913Z,6.10
2017-07-20T00:15:41.311Z,5.77
2017-07-20T00:18:09.714Z,6.50
2017-07-20T00:20:38.138Z,6.93
2017-07-20T00:23:06.542Z,7.23
2017-07-20T00:25:34.945Z,5.93
2017-07-20T00:28:03.630Z,6.10
2017-07-20T00:30:32.026Z,5.90
2017-07-20T00:33:00.422Z,4.93
2017-07-20T00:35:28.854Z,5.17
2017-07-20T00:37:57.269Z,5.07
2017-07-20T00:40:25.674Z,5.90
2017-07-20T00:42:54.093Z,6.53
2017-07-20T00:45:22.505Z,5.87
2017-07-20T00:47:50.925Z,5.90
2017-07-20T00:50:19.351Z,7.40
2017-07-20T00:52:47.749Z,6.90
2017-07-20T00:55:16.166Z,8.03
2017-07-20T00:57:44.603Z,5.83
2017-07-20T01:00:13.017Z,6.87
2017-07-20T01:02:41.422Z,6.10
2017-07-20T01:05:09.953Z,6.37
2017-07-20T01:07:38.365Z,5.87
2017-07-20T01:10:06.785Z,5.20
2017-07-20T01:12:35.881Z,6.23
2017-07-20T01:15:03.938Z,7.47
2017-07-20T01:17:32.342Z,6.20
2017-07-20T01:20:00.781Z,6.53
2017-07-20T01:22:29.185Z,5.97
2017-07-20T01:24:57.586Z,7.13
2017-07-20T01:27:26.065Z,5.83
2017-07-20T01:29:54.466Z,6.00
2017-07-20T01:32:22.873Z,5.90
2017-07-20T01:34:51.313Z,5.10
2017-07-20T01:37:19.717Z,5.67
2017-07-20T01:39:48.804Z,5.60
2017-07-20T01:42:17.233Z,6.20
2017-07-20T01:44:45.679Z,6.50
2017-07-20T01:47:14.078Z,6.37
2017-07-20T01:49:42.509Z,7.00
2017-07-20T01:52:10.917Z,6.10
2017-07-20T01:54:39.401Z,6.83
2017-07-20T01:57:08.266Z,5.93
2017-07-20T01:59:36.664Z,6.43
2017-07-20T02:02:05.085Z,6.20
2017-07-20T02:04:33.523Z,6.13
2017-07-20T02:07:01.925Z,6.50
2017-07-20T02:09:30.333Z,6.90
2017-07-20T02:11:58.421Z,6.60
2017-07-20T02:14:26.836Z,6.63
2017-07-20T02:16:55.254Z,7.13
2017-07-20T02:19:23.684Z,5.77
2017-07-20T02:21:52.093Z,5.53
2017-07-20T02:24:20.510Z,5.87
2017-07-20T02:26:48.938Z,6.30
2017-07-20T02:29:17.342Z,5.20
2017-07-20T02:31:46.427Z,6.23
2017-07-20T02:34:14.853Z,6.33
2017-07-20T02:36:43.267Z,7.07
2017-07-20T02:39:11.674Z,7.00
2017-07-20T02:41:40.092Z,5.77
2017-07-20T02:44:08.503Z,6.00
2017-07-20T02:46:36.913Z,6.00
2017-07-20T02:49:05.343Z,6.60
2017-07-20T02:51:33.750Z,6.60
2017-07-20T02:54:02.305Z,7.03
2017-07-20T02:56:30.906Z,6.90
2017-07-20T02:58:59.322Z,7.00
2017-07-20T03:01:27.725Z,6.27
2017-07-20T03:03:56.157Z,6.20
2017-07-20T03:06:24.571Z,7.13
2017-07-20T03:08:52.974Z,7.20
2017-07-20T03:11:21.400Z,8.73
2017-07-20T03:13:49.815Z,7.27
2017-07-20T03:16:18.234Z,6.90
2017-07-20T03:18:46.686Z,8.40
2017-07-20T03:21:15.094Z,7.27
2017-07-20T03:23:43.501Z,7.57
2017-07-20T03:26:12.721Z,8.23
2017-07-20T03:28:41.133Z,8.00
2017-07-20T03:31:09.533Z,7.90
2017-07-20T03:33:37.961Z,9.13
2017-07-20T03:36:06.018Z,6.90
2017-07-20T03:38:34.424Z,7.57
2017-07-20T03:41:02.897Z,7.40
2017-07-20T03:43:31.335Z,8.07
2017-07-20T03:45:59.741Z,8.60
2017-07-20T03:48:28.187Z,8.57
2017-07-20T03:50:56.585Z,8.10
2017-07-20T03:53:24.987Z,8.63
2017-07-20T03:55:53.405Z,8.07
2017-07-20T03:58:21.798Z,8.00
2017-07-20T04:00:50.212Z,6.90
2017-07-20T04:03:18.721Z,8.43
2017-07-20T04:05:47.116Z,7.97
2017-07-20T04:08:15.517Z,6.63
2017-07-20T04:10:43.933Z,6.90
2017-07-20T04:13:12.339Z,7.63
2017-07-20T04:15:40.752Z,9.20
2017-07-20T04:18:09.174Z,10.27
2017-07-20T04:20:37.598Z,8.93
2017-07-20T04:23:06.010Z,8.70
2017-07-20T04:25:34.438Z,9.53
2017-07-20T04:28:02.858Z,9.20
2017-07-20T04:30:31.270Z,9.50
2017-07-20T04:32:59.582Z,9.10
2017-07-20T04:35:27.987Z,10.00
2017-07-20T04:37:56.390Z,9.43
2017-07-20T04:40:24.823Z,9.70
2017-07-20T04:42:54.013Z,8.70
2017-07-20T04:45:22.494Z,8.70
2017-07-20T04:47:50.974Z,7.63
2017-07-20T04:50:19.407Z,8.77
2017-07-20T04:52:50.810Z,8.77
2017-07-20T04:55:22.218Z,8.60
2017-07-20T04:57:50.672Z,8.40
2017-07-20T05:00:19.134Z,8.87
2017-07-20T05:02:47.681Z,6.37
2017-07-20T05:05:16.832Z,7.67
2017-07-20T05:07:45.328Z,7.70
2017-07-20T05:10:16.859Z,7.77
2017-07-20T05:12:45.301Z,7.03
2017-07-20T05:15:13.793Z,6.80
2017-07-20T05:17:42.240Z,6.83
2017-07-20T05:20:12.846Z,7.80
2017-07-20T05:22:41.241Z,7.40
2017-07-20T05:25:09.698Z,7.50
2017-07-20T05:27:38.138Z,6.83
2017-07-20T05:30:06.537Z,8.17
2017-07-20T05:32:34.957Z,6.97
2017-07-20T05:35:03.363Z,7.47
2017-07-20T05:37:31.578Z,7.20
2017-07-20T05:39:59.857Z,7.50
2017-07-20T05:42:28.862Z,6.60
2017-07-20T05:44:57.840Z,6.37
2017-07-20T05:47:27.295Z,6.80
2017-07-20T05:49:55.771Z,6.93
2017-07-20T05:52:24.492Z,6.63
2017-07-20T05:54:52.984Z,6.20
2017-07-20T05:57:22.950Z,7.00
2017-07-20T05:59:51.431Z,6.13
2017-07-20T06:02:19.886Z,6.57
2017-07-20T06:07:26.401Z,6.20
2017-07-20T06:09:54.707Z,6.67
2017-07-20T06:12:23.141Z,6.00
2017-07-20T06:14:51.701Z,6.70
2017-07-20T06:17:20.178Z,5.57
2017-07-20T06:19:48.641Z,5.60
2017-07-20T06:22:17.101Z,5.23
2017-07-20T06:24:45.549Z,5.30
2017-07-20T06:27:22.840Z,6.23
2017-07-20T06:29:51.890Z,5.53
2017-07-20T06:32:20.389Z,5.73
2017-07-20T06:34:48.896Z,5.40
2017-07-20T06:37:17.374Z,4.70
2017-07-20T06:39:46.229Z,5.40
2017-07-20T06:42:18.202Z,4.97
2017-07-20T06:44:46.992Z,4.90
2017-07-20T06:47:15.470Z,6.13
2017-07-20T06:49:44.002Z,5.63
2017-07-20T06:52:14.671Z,4.63
2017-07-20T06:54:43.151Z,4.47
2017-07-20T06:57:11.665Z,4.50
2017-07-20T06:59:40.141Z,5.10
2017-07-20T07:02:08.591Z,4.83
2017-07-20T07:04:37.122Z,4.30
2017-07-20T07:07:05.644Z,5.00
2017-07-20T07:09:34.163Z,4.57
2017-07-20T07:12:02.459Z,4.60
2017-07-20T07:14:30.941Z,4.53
2017-07-20T07:17:02.142Z,4.40
2017-07-20T07:19:34.166Z,3.30
2017-07-20T07:22:02.651Z,4.27
2017-07-20T07:24:32.126Z,3.73
2017-07-20T07:27:00.614Z,3.63
2017-07-20T07:29:29.115Z,3.47
2017-07-20T07:32:00.728Z,3.80
2017-07-20T07:34:29.193Z,4.10
2017-07-20T07:36:57.416Z,3.27
2017-07-20T07:41:59.247Z,3.23
2017-07-20T07:44:27.783Z,3.10
2017-07-20T07:46:56.275Z,3.13
2017-07-20T07:49:24.735Z,3.40
2017-07-20T07:51:53.204Z,3.47
2017-07-20T07:54:21.668Z,3.70
2017-07-20T07:56:50.109Z,3.30
2017-07-20T07:59:18.566Z,3.57
2017-07-20T08:01:47.069Z,3.33
2017-07-20T08:04:16.318Z,3.40
2017-07-20T08:06:45.499Z,3.37
2017-07-20T08:09:13.947Z,2.87
2017-07-20T08:11:42.430Z,2.70
2017-07-20T08:14:10.858Z,3.50
2017-07-20T08:16:39.257Z,2.90
2017-07-20T08:19:07.694Z,2.50
2017-07-20T08:21:36.093Z,2.77
2017-07-20T08:24:04.489Z,3.17
2017-07-20T08:26:32.910Z,3.23
2017-07-20T08:29:01.323Z,2.80
2017-07-20T08:31:29.729Z,3.30
2017-07-20T08:33:58.327Z,2.40
2017-07-20T08:36:26.808Z,3.33
2017-07-20T08:38:55.522Z,2.97
2017-07-20T08:41:24.045Z,2.97
2017-07-20T08:43:52.552Z,3.20
2017-07-20T08:46:21.266Z,2.60
2017-07-20T08:48:49.825Z,2.83
2017-07-20T08:51:18.348Z,2.17
2017-07-20T08:53:46.837Z,2.00
2017-07-20T08:56:15.322Z,2.90
2017-07-20T08:58:44.853Z,3.13
2017-07-20T09:01:13.439Z,2.53
2017-07-20T09:03:41.919Z,2.47
2017-07-20T09:06:10.450Z,3.00
2017-07-20T09:08:38.940Z,2.50
2017-07-20T09:11:07.378Z,2.60
2017-07-20T09:13:35.965Z,2.20
2017-07-20T09:16:06.107Z,2.23
2017-07-20T09:18:34.569Z,2.57
2017-07-20T09:21:03.116Z,2.17
2017-07-20T09:23:31.571Z,2.50
2017-07-20T09:26:07.526Z,2.63
2017-07-20T09:28:39.951Z,2.70
2017-07-20T09:31:08.429Z,2.60
2017-07-20T09:33:36.939Z,1.80
2017-07-20T09:36:05.516Z,2.67
2017-07-20T09:38:37.202Z,2.80
2017-07-20T09:41:07.958Z,2.40
2017-07-20T09:43:36.500Z,2.00
2017-07-20T09:46:07.026Z,1.80
2017-07-20T09:48:37.003Z,2.80
2017-07-20T09:51:05.551Z,2.00
2017-07-20T09:53:36.493Z,1.93
2017-07-20T09:56:05.199Z,2.60
2017-07-20T09:58:33.759Z,1.80
2017-07-20T10:01:02.238Z,1.80
2017-07-20T10:03:30.697Z,1.80
2017-07-20T10:06:00.739Z,1.60
2017-07-20T10:08:28.902Z,1.60
2017-07-20T10:10:57.434Z,1.40
2017-07-20T10:13:28.009Z,1.50
2017-07-20T10:15:56.948Z,1.33
2017-07-20T10:18:25.508Z,2.10
2017-07-20T10:20:53.959Z,1.47
2017-07-20T10:26:05.306Z,1.80
2017-07-20T10:28:33.840Z,1.40
2017-07-20T10:31:05.182Z,1.63
2017-07-20T10:33:33.978Z,1.87
2017-07-20T10:36:02.435Z,1.53
2017-07-20T10:38:30.890Z,1.70
2017-07-20T10:41:00.370Z,1.83
2017-07-20T10:43:28.907Z,1.80
2017-07-20T10:45:57.431Z,1.80
2017-07-20T10:48:26.093Z,1.93
2017-07-20T10:50:54.590Z,1.53
2017-07-20T10:53:23.122Z,1.50
2017-07-20T10:55:51.674Z,2.07
2017-07-20T10:58:20.124Z,2.10
2017-07-20T11:00:48.595Z,1.90
2017-07-20T11:03:17.111Z,2.00
2017-07-20T11:05:47.431Z,2.20
2017-07-20T11:08:16.626Z,4.00
2017-07-20T11:10:45.200Z,2.57
2017-07-20T11:13:13.688Z,2.30
2017-07-20T11:18:34.475Z,1.90
2017-07-20T11:21:02.963Z,2.23
2017-07-20T11:26:15.533Z,2.27
2017-07-20T11:28:44.027Z,2.13
2017-07-20T11:31:12.522Z,2.23
2017-07-20T11:33:41.041Z,2.50
2017-07-20T11:36:09.546Z,2.30
2017-07-20T11:38:38.030Z,1.87
2017-07-20T11:41:06.530Z,2.10
2017-07-20T11:43:35.078Z,2.00
2017-07-20T11:46:03.564Z,2.13
2017-07-20T11:48:32.028Z,2.23
2017-07-20T11:51:00.513Z,1.87
2017-07-20T11:53:29.034Z,1.97
2017-07-20T11:55:57.494Z,2.30
2017-07-20T11:58:25.981Z,2.47
2017-07-20T12:00:54.629Z,2.90
2017-07-20T12:03:23.098Z,1.83
2017-07-20T12:05:51.541Z,2.27
2017-07-20T12:08:19.957Z,2.87
2017-07-20T12:10:48.361Z,2.43
2017-07-20T12:13:16.833Z,2.33
2017-07-20T12:15:46.163Z,2.77
2017-07-20T12:18:14.627Z,3.50
2017-07-20T12:20:49.936Z,2.33
2017-07-20T12:23:20.189Z,2.97
2017-07-20T12:25:48.639Z,3.20
2017-07-20T12:28:17.878Z,2.77
2017-07-20T12:30:46.297Z,2.53
2017-07-20T12:33:14.704Z,3.40
2017-07-20T12:35:43.150Z,2.97
2017-07-20T12:38:11.584Z,3.30
2017-07-20T12:40:40.280Z,2.30
2017-07-20T12:43:08.714Z,2.60
2017-07-20T12:45:37.141Z,2.90
2017-07-20T12:48:05.540Z,2.50
2017-07-20T12:50:33.934Z,2.60
2017-07-20T12:53:02.382Z,2.13
2017-07-20T12:55:30.782Z,3.10
2017-07-20T12:57:59.413Z,2.57
2017-07-20T13:00:27.861Z,2.10
2017-07-20T13:02:56.280Z,2.60
2017-07-20T13:05:24.673Z,2.80
2017-07-20T13:07:53.130Z,2.87
2017-07-20T13:10:21.534Z,2.10
2017-07-20T13:12:49.937Z,2.30
2017-07-20T13:15:18.361Z,3.33
2017-07-20T13:17:46.758Z,3.07
2017-07-20T13:20:15.157Z,3.00
2017-07-20T13:22:43.672Z,2.20
2017-07-20T13:25:12.065Z,3.37
2017-07-20T13:27:40.505Z,2.70
2017-07-20T13:30:08.961Z,2.53
2017-07-20T13:32:37.369Z,2.33
2017-07-20T13:35:05.777Z,2.60
2017-07-20T13:37:34.211Z,2.10
2017-07-20T13:40:02.617Z,2.90
2017-07-20T13:42:31.021Z,2.90
2017-07-20T13:44:59.446Z,2.30
2017-07-20T13:47:27.848Z,2.63
2017-07-20T13:49:56.259Z,2.63
2017-07-20T13:52:24.708Z,2.67
2017-07-20T13:54:53.886Z,2.97
2017-07-20T13:57:22.288Z,4.13
2017-07-20T13:59:50.705Z,2.80
2017-07-20T14:02:19.134Z,2.50
2017-07-20T14:04:47.541Z,2.37
2017-07-20T14:07:15.949Z,2.20
2017-07-20T14:09:44.376Z,2.37
2017-07-20T14:12:12.798Z,4.20
2017-07-20T14:14:41.196Z,2.77
2017-07-20T14:17:09.659Z,2.23
2017-07-20T14:19:38.060Z,3.00
2017-07-20T14:22:06.469Z,2.77
2017-07-20T14:24:34.887Z,2.07
2017-07-20T14:27:03.289Z,2.73
2017-07-20T14:29:31.742Z,2.53
2017-07-20T14:32:00.155Z,2.73
2017-07-20T14:34:28.582Z,2.70
2017-07-20T14:36:57.026Z,2.37
2017-07-20T14:39:25.444Z,2.50
2017-07-20T14:41:53.973Z,2.47
2017-07-20T14:44:22.410Z,2.63
2017-07-20T14:46:50.819Z,2.80
2017-07-20T14:49:19.225Z,3.43
2017-07-20T14:51:47.744Z,2.37
2017-07-20T14:54:16.148Z,2.93
2017-07-20T14:56:44.549Z,2.33
2017-07-20T14:59:12.977Z,2.30
2017-07-20T15:01:41.430Z,1.90
2017-07-20T15:04:09.925Z,2.73
2017-07-20T15:06:38.362Z,2.40
2017-07-20T15:09:06.761Z,2.80
2017-07-20T15:11:35.193Z,2.50
2017-07-20T15:14:03.601Z,2.50
2017-07-20T15:16:32.765Z,2.83
2017-07-20T15:19:01.201Z,3.00
2017-07-20T15:21:29.637Z,2.53
2017-07-20T15:23:58.080Z,2.70
2017-07-20T15:26:26.517Z,3.03
2017-07-20T15:28:54.921Z,2.80
2017-07-20T15:31:23.351Z,2.50
2017-07-20T15:33:51.765Z,3.50
2017-07-20T15:36:20.182Z,2.97
2017-07-20T15:38:48.583Z,3.03
2017-07-20T15:41:17.066Z,3.17
2017-07-20T15:43:45.467Z,3.00
2017-07-20T15:46:13.882Z,2.97
2017-07-20T15:48:42.297Z,2.60
2017-07-20T15:51:10.707Z,2.87
2017-07-20T15:53:39.112Z,2.73
2017-07-20T15:56:07.549Z,2.63
2017-07-20T15:58:35.973Z,2.70
2017-07-20T16:01:04.382Z,2.97
2017-07-20T16:03:32.901Z,2.70
2017-07-20T16:06:01.297Z,2.40
2017-07-20T16:08:29.706Z,3.17
2017-07-20T16:10:58.133Z,4.63
2017-07-20T16:13:26.537Z,3.90
2017-07-20T16:15:54.940Z,3.80
2017-07-20T16:18:23.366Z,3.87
2017-07-20T16:20:51.793Z,3.23
2017-07-20T16:23:20.226Z,3.33
2017-07-20T16:25:48.671Z,3.00
2017-07-20T16:28:17.088Z,3.47
2017-07-20T16:30:45.496Z,3.10
2017-07-20T16:33:14.017Z,3.47
2017-07-20T16:35:42.419Z,3.53
2017-07-20T16:38:10.813Z,2.67
2017-07-20T16:40:39.425Z,3.60
2017-07-20T16:43:07.833Z,3.20
2017-07-20T16:45:36.327Z,4.00
2017-07-20T16:48:04.813Z,3.40
2017-07-20T16:50:33.349Z,2.63
2017-07-20T16:53:01.810Z,3.07
2017-07-20T16:55:30.281Z,3.40
2017-07-20T16:57:58.736Z,4.07
2017-07-20T17:00:27.239Z,2.70
2017-07-20T17:02:55.779Z,3.67
2017-07-20T17:05:24.245Z,3.17
2017-07-20T17:07:52.687Z,2.90
2017-07-20T17:10:21.181Z,2.80
2017-07-20T17:12:49.598Z,3.50
2017-07-20T17:15:18.032Z,2.70
2017-07-20T17:17:46.452Z,2.70
2017-07-20T17:20:14.856Z,3.20
2017-07-20T17:22:44.026Z,3.27
2017-07-20T17:25:12.448Z,3.40
2017-07-20T17:27:40.858Z,2.90
2017-07-20T17:30:09.350Z,2.80
2017-07-20T17:32:37.773Z,3.30
2017-07-20T17:35:06.182Z,3.53
2017-07-20T17:37:34.587Z,2.90
2017-07-20T17:40:03.028Z,3.53
2017-07-20T17:42:31.440Z,3.70
2017-07-20T17:44:59.849Z,2.73
2017-07-20T17:47:28.433Z,3.00
2017-07-20T17:49:56.977Z,3.83
2017-07-20T17:52:25.477Z,3.70
2017-07-20T17:54:53.909Z,4.40
2017-07-20T17:57:21.970Z,3.70
2017-07-20T17:59:50.511Z,3.27
2017-07-20T18:02:18.958Z,3.43
2017-07-20T18:04:47.358Z,4.07
2017-07-20T18:07:15.754Z,4.00
2017-07-20T18:09:44.213Z,4.03
2017-07-20T18:12:12.943Z,3.23
2017-07-20T18:14:42.157Z,4.17
2017-07-20T18:17:10.636Z,4.53
2017-07-20T18:19:39.837Z,3.63
2017-07-20T18:22:08.260Z,4.40
2017-07-20T18:24:36.688Z,3.93
2017-07-20T18:27:04.929Z,4.30
2017-07-20T18:29:33.381Z,4.60
2017-07-20T18:32:01.813Z,3.73
2017-07-20T18:34:30.205Z,3.70
2017-07-20T18:36:58.615Z,3.93
2017-07-20T18:39:27.061Z,4.77
2017-07-20T18:41:55.468Z,4.20
2017-07-20T18:44:23.869Z,5.20
2017-07-20T18:46:52.335Z,3.90
2017-07-20T18:49:20.724Z,4.37
2017-07-20T18:51:49.119Z,4.33
2017-07-20T18:54:17.551Z,4.33
2017-07-20T18:56:45.957Z,3.90
2017-07-20T18:59:14.363Z,4.03
2017-07-20T19:01:42.797Z,4.27
2017-07-20T19:04:11.965Z,4.27
2017-07-20T19:06:40.424Z,4.60
2017-07-20T19:09:08.841Z,4.40
2017-07-20T19:11:37.246Z,4.70
2017-07-20T19:14:06.418Z,4.70
2017-07-20T19:16:34.833Z,5.00
2017-07-20T19:19:03.241Z,4.40
2017-07-20T19:21:31.637Z,4.70
2017-07-20T19:24:00.061Z,4.50
2017-07-20T19:26:28.476Z,5.27
2017-07-20T19:28:56.879Z,4.73
2017-07-20T19:31:25.302Z,4.63
2017-07-20T19:33:53.705Z,4.00
2017-07-20T19:36:22.102Z,4.27
2017-07-20T19:38:50.542Z,4.00
2017-07-20T19:41:18.940Z,4.70
2017-07-20T19:43:47.338Z,4.50
2017-07-20T19:46:15.750Z,5.73
2017-07-20T19:48:44.169Z,5.00
2017-07-20T19:51:12.602Z,4.27
2017-07-20T19:53:41.025Z,4.40
2017-07-20T19:56:09.533Z,3.90
2017-07-20T19:58:37.935Z,2.83
2017-07-20T20:01:06.341Z,2.73
2017-07-20T20:03:36.354Z,2.80
2017-07-20T20:06:04.819Z,2.63
2017-07-20T20:08:34.901Z,2.00
2017-07-20T20:11:03.348Z,1.83
2017-07-20T20:13:31.946Z,2.30
2017-07-20T20:16:00.357Z,2.50
2017-07-20T20:18:28.793Z,1.90
2017-07-20T20:20:57.194Z,3.17
2017-07-20T20:23:25.625Z,2.10
2017-07-20T20:25:54.087Z,1.63
2017-07-20T20:28:22.513Z,1.57
2017-07-20T20:30:50.929Z,1.30
2017-07-20T20:33:19.342Z,1.70
2017-07-20T20:35:47.749Z,1.37
2017-07-20T20:38:16.149Z,1.37
2017-07-20T20:40:45.128Z,1.43
2017-07-20T20:43:14.261Z,1.33
2017-07-20T20:45:42.685Z,1.80
2017-07-20T20:48:13.422Z,1.37
2017-07-20T20:50:41.838Z,2.00
2017-07-20T20:53:09.917Z,1.60
2017-07-20T20:55:38.439Z,2.17
2017-07-20T20:58:06.853Z,1.77
2017-07-20T21:00:35.274Z,1.80
2017-07-20T21:03:03.733Z,1.73
2017-07-20T21:05:32.151Z,1.67
2017-07-20T21:08:00.558Z,1.67
2017-07-20T21:10:29.004Z,1.23
2017-07-20T21:12:57.409Z,0.70
2017-07-20T21:15:25.837Z,0.87
2017-07-20T21:17:54.285Z,0.90
2017-07-20T21:20:22.690Z,1.17
2017-07-20T21:22:51.087Z,1.20
2017-07-20T21:25:19.553Z,1.13
2017-07-20T21:27:47.949Z,1.10
2017-07-20T21:30:16.351Z,1.00
2017-07-20T21:32:44.951Z,1.07
2017-07-20T21:35:13.350Z,1.70
2017-07-20T21:37:41.825Z,1.00
2017-07-20T21:40:10.258Z,0.93
2017-07-20T21:42:38.664Z,1.23
2017-07-20T21:45:07.079Z,1.10
2017-07-20T21:47:35.511Z,0.90
2017-07-20T21:50:03.922Z,1.80
2017-07-20T21:52:32.334Z,1.07
2017-07-20T21:55:00.748Z,1.60
2017-07-20T21:57:29.159Z,1.17
2017-07-20T21:59:57.558Z,1.00
2017-07-20T22:02:26.833Z,0.80
2017-07-20T22:04:55.236Z,0.90
2017-07-20T22:07:23.638Z,0.97
2017-07-20T22:09:52.328Z,1.20
2017-07-20T22:12:20.737Z,1.27
2017-07-20T22:14:49.142Z,1.00
2017-07-20T22:17:17.558Z,0.97
2017-07-20T22:19:45.964Z,1.13
2017-07-20T22:22:14.369Z,1.30
2017-07-20T22:24:42.809Z,1.07
2017-07-20T22:27:11.263Z,1.07
2017-07-20T22:29:39.674Z,0.80
2017-07-20T22:32:08.101Z,1.33
2017-07-20T22:34:36.525Z,1.13
2017-07-20T22:37:04.930Z,0.93
2017-07-20T22:39:33.390Z,1.20
2017-07-20T22:42:01.852Z,1.40
2017-07-20T22:44:30.268Z,1.90
2017-07-20T22:46:58.697Z,0.80
2017-07-20T22:49:27.102Z,1.80
2017-07-20T22:51:55.502Z,1.27
2017-07-20T22:54:23.933Z,0.90
2017-07-20T22:56:52.342Z,1.03
2017-07-20T22:59:20.754Z,1.00
2017-07-20T23:01:49.325Z,0.90
2017-07-20T23:04:17.753Z,0.93
2017-07-20T23:06:46.246Z,1.23
2017-07-20T23:09:14.721Z,1.00
2017-07-20T23:11:43.174Z,1.23
2017-07-20T23:14:11.585Z,1.27
2017-07-20T23:16:40.009Z,0.90
2017-07-20T23:19:08.405Z,1.20
2017-07-20T23:21:37.490Z,1.20
2017-07-20T23:24:05.905Z,0.87
2017-07-20T23:26:35.072Z,1.03
2017-07-20T23:29:03.478Z,1.30
2017-07-20T23:31:31.910Z,0.80
2017-07-20T23:34:00.318Z,1.00
2017-07-20T23:36:28.723Z,1.30
2017-07-20T23:38:57.157Z,1.07
2017-07-20T23:41:25.557Z,1.60
2017-07-20T23:43:53.959Z,1.20
2017-07-20T23:46:22.446Z,0.97
2017-07-20T23:48:50.846Z,1.40
2017-07-20T23:51:19.253Z,1.17
2017-07-20T23:53:47.687Z,0.93
2017-07-20T23:56:16.865Z,1.30
2017-07-20T23:58:45.267Z,1.07
